createdAt,value
2022-08-23T00:00:30.275Z,50.910740
2022-08-23T00:01:31.251Z,50.910740
2022-08-23T00:02:30.295Z,50.910656
2022-08-23T00:03:30.245Z,50.910599
2022-08-23T00:04:34.629Z,50.910637
2022-08-23T00:05:31.225Z,50.910702
2022-08-23T00:06:30.217Z,50.910625
2022-08-23T00:07:30.222Z,50.910675
2022-08-23T00:08:30.193Z,50.910721
2022-08-23T00:09:30.187Z,50.910725
2022-08-23T00:10:30.175Z,50.910625
2022-08-23T00:11:30.170Z,50.910549
2022-08-23T00:12:30.169Z,50.910515
2022-08-23T00:13:47.318Z,50.910656
2022-08-23T00:14:31.134Z,50.910614
2022-08-23T00:15:30.131Z,50.910633
2022-08-23T00:16:30.112Z,50.910583
2022-08-23T00:17:33.733Z,50.910507
2022-08-23T00:18:30.098Z,50.910442
2022-08-23T00:19:30.091Z,50.910500
2022-08-23T00:20:30.081Z,50.910343
2022-08-23T00:21:30.069Z,50.910473
2022-08-23T00:22:30.076Z,50.910423
2022-08-23T00:23:30.056Z,50.910530
2022-08-23T00:24:30.046Z,50.910690
2022-08-23T00:25:30.035Z,50.910713
2022-08-23T00:26:30.029Z,50.910675
2022-08-23T00:27:30.033Z,50.910656
2022-08-23T00:28:30.087Z,50.910641
2022-08-23T00:29:30.002Z,50.910629
2022-08-23T00:30:29.991Z,50.910675
2022-08-23T00:31:30.075Z,50.910637
2022-08-23T00:32:30.000Z,50.910694
2022-08-23T00:33:29.963Z,50.910664
2022-08-23T00:34:29.952Z,50.910686
2022-08-23T00:35:29.954Z,50.910664
2022-08-23T00:36:29.928Z,50.910702
2022-08-23T00:37:29.951Z,50.910645
2022-08-23T00:38:29.917Z,50.910683
2022-08-23T00:39:29.910Z,50.910690
2022-08-23T00:40:29.891Z,50.910641
2022-08-23T00:41:29.888Z,50.910683
2022-08-23T00:42:29.896Z,50.910671
2022-08-23T00:43:29.873Z,50.910686
2022-08-23T00:44:29.856Z,50.910622
2022-08-23T00:45:29.852Z,50.910625
2022-08-23T00:46:29.841Z,50.910625
2022-08-23T00:47:29.846Z,50.910633
2022-08-23T00:48:29.817Z,50.910645
2022-08-23T00:49:29.807Z,50.910656
2022-08-23T00:50:29.796Z,50.910671
2022-08-23T00:51:29.791Z,50.910675
2022-08-23T00:52:29.791Z,50.910690
2022-08-23T00:53:29.771Z,50.910671
2022-08-23T00:54:29.749Z,50.910625
2022-08-23T00:55:29.757Z,50.910656
2022-08-23T00:56:29.973Z,50.910645
2022-08-23T00:57:29.745Z,50.910679
2022-08-23T00:58:29.719Z,50.910713
2022-08-23T00:59:29.726Z,50.910740
2022-08-23T01:00:29.696Z,50.910713
2022-08-23T01:01:29.755Z,50.910713
2022-08-23T01:02:29.695Z,50.910671
2022-08-23T01:03:29.674Z,50.910797
2022-08-23T01:04:30.665Z,50.910770
2022-08-23T01:05:29.644Z,50.910904
2022-08-23T01:06:29.636Z,50.910793
2022-08-23T01:07:29.650Z,50.910748
2022-08-23T01:08:29.623Z,50.910717
2022-08-23T01:09:29.605Z,50.910744
2022-08-23T01:10:29.605Z,50.910751
2022-08-23T01:11:29.594Z,50.910744
2022-08-23T01:12:32.469Z,50.910736
2022-08-23T01:13:29.572Z,50.910709
2022-08-23T01:14:29.559Z,50.910740
2022-08-23T01:15:29.550Z,50.910740
2022-08-23T01:16:29.543Z,50.910736
2022-08-23T01:17:29.568Z,50.910744
2022-08-23T01:18:29.533Z,50.910767
2022-08-23T01:19:30.421Z,50.910740
2022-08-23T01:20:29.499Z,50.910736
2022-08-23T01:21:29.496Z,50.910740
2022-08-23T01:22:29.480Z,50.910751
2022-08-23T01:23:29.488Z,50.910797
2022-08-23T01:25:07.654Z,50.910767
2022-08-23T01:25:30.454Z,50.910744
2022-08-23T01:26:29.443Z,50.910728
2022-08-23T01:27:29.431Z,50.910702
2022-08-23T01:28:29.457Z,50.910706
2022-08-23T01:29:29.413Z,50.910755
2022-08-23T01:30:29.408Z,50.910740
2022-08-23T01:31:29.398Z,50.910683
2022-08-23T01:32:29.388Z,50.910587
2022-08-23T01:33:29.389Z,50.910637
2022-08-23T01:34:29.359Z,50.910633
2022-08-23T01:35:29.359Z,50.910686
2022-08-23T01:36:29.346Z,50.910732
2022-08-23T01:37:29.336Z,50.910751
2022-08-23T01:38:30.301Z,50.910736
2022-08-23T01:39:29.317Z,50.910740
2022-08-23T01:40:29.306Z,50.910702
2022-08-23T01:41:29.301Z,50.910713
2022-08-23T01:42:29.285Z,50.910694
2022-08-23T01:43:29.291Z,50.910652
2022-08-23T01:44:29.281Z,50.910709
2022-08-23T01:45:29.257Z,50.910660
2022-08-23T01:46:29.248Z,50.910679
2022-08-23T01:47:29.242Z,50.910717
2022-08-23T01:48:29.248Z,50.910801
2022-08-23T01:49:29.220Z,50.910801
2022-08-23T01:50:29.317Z,50.910732
2022-08-23T01:51:29.193Z,50.910786
2022-08-23T01:52:29.261Z,50.910755
2022-08-23T01:53:29.193Z,50.910728
2022-08-23T01:54:29.169Z,50.910698
2022-08-23T01:55:29.156Z,50.910690
2022-08-23T01:56:38.096Z,50.910648
2022-08-23T01:57:30.141Z,50.910702
2022-08-23T01:58:29.146Z,50.910770
2022-08-23T01:59:29.114Z,50.910820
2022-08-23T02:00:30.074Z,50.910793
2022-08-23T02:01:29.109Z,50.910759
2022-08-23T02:02:29.085Z,50.910767
2022-08-23T02:03:29.095Z,50.910774
2022-08-23T02:04:29.068Z,50.910767
2022-08-23T02:05:29.053Z,50.910721
2022-08-23T02:06:29.060Z,50.910740
2022-08-23T02:07:29.041Z,50.910751
2022-08-23T02:08:29.046Z,50.910694
2022-08-23T02:09:29.017Z,50.910652
2022-08-23T02:10:29.008Z,50.910725
2022-08-23T02:11:28.994Z,50.910721
2022-08-23T02:12:28.991Z,50.910816
2022-08-23T02:13:29.001Z,50.910751
2022-08-23T02:14:28.970Z,50.910736
2022-08-23T02:15:28.956Z,50.910675
2022-08-23T02:16:28.950Z,50.910854
2022-08-23T02:17:28.938Z,50.910831
2022-08-23T02:18:28.939Z,50.910778
2022-08-23T02:19:28.918Z,50.910679
2022-08-23T02:20:28.912Z,50.910873
2022-08-23T02:21:28.899Z,50.910782
2022-08-23T02:22:28.889Z,50.910873
2022-08-23T02:23:28.893Z,50.910728
2022-08-23T02:24:28.865Z,50.910728
2022-08-23T02:25:28.859Z,50.910801
2022-08-23T02:26:31.274Z,50.910793
2022-08-23T02:27:28.837Z,50.910671
2022-08-23T02:28:28.841Z,50.910683
2022-08-23T02:29:28.822Z,50.910713
2022-08-23T02:30:28.826Z,50.910744
2022-08-23T02:31:28.795Z,50.910748
2022-08-23T02:32:28.797Z,50.910732
2022-08-23T02:33:28.823Z,50.910748
2022-08-23T02:34:35.547Z,50.910767
2022-08-23T02:35:28.787Z,50.910801
2022-08-23T02:36:28.783Z,50.910835
2022-08-23T02:37:28.774Z,50.910812
2022-08-23T02:38:28.782Z,50.910751
2022-08-23T02:39:28.752Z,50.910770
2022-08-23T02:40:28.746Z,50.910755
2022-08-23T02:41:28.732Z,50.910599
2022-08-23T02:42:28.726Z,50.910667
2022-08-23T02:43:28.742Z,50.910667
2022-08-23T02:44:28.713Z,50.910763
2022-08-23T02:45:28.692Z,50.910748
2022-08-23T02:46:28.682Z,50.910725
2022-08-23T02:47:28.669Z,50.910809
2022-08-23T02:48:28.663Z,50.910812
2022-08-23T02:49:28.672Z,50.910774
2022-08-23T02:50:28.650Z,50.910793
2022-08-23T02:51:28.632Z,50.910805
2022-08-23T02:52:28.627Z,50.910740
2022-08-23T02:53:28.623Z,50.910763
2022-08-23T02:54:28.625Z,50.910934
2022-08-23T02:55:28.602Z,50.911045
2022-08-23T02:56:28.597Z,50.910931
2022-08-23T02:57:28.577Z,50.910858
2022-08-23T02:58:28.574Z,50.910854
2022-08-23T02:59:28.575Z,50.910820
2022-08-23T03:00:28.555Z,50.910755
2022-08-23T03:01:28.543Z,50.910789
2022-08-23T03:02:28.586Z,50.910786
2022-08-23T03:03:28.525Z,50.910748
2022-08-23T03:04:28.529Z,50.910789
2022-08-23T03:05:28.501Z,50.910793
2022-08-23T03:06:28.492Z,50.910702
2022-08-23T03:07:28.481Z,50.910690
2022-08-23T03:08:28.474Z,50.910679
2022-08-23T03:09:28.486Z,50.910728
2022-08-23T03:10:28.451Z,50.910610
2022-08-23T03:11:28.444Z,50.910587
2022-08-23T03:12:28.436Z,50.910641
2022-08-23T03:13:28.426Z,50.910839
2022-08-23T03:14:28.451Z,50.910789
2022-08-23T03:15:28.405Z,50.910774
2022-08-23T03:16:28.403Z,50.910664
2022-08-23T03:17:28.386Z,50.910686
2022-08-23T03:18:28.391Z,50.910717
2022-08-23T03:19:28.391Z,50.910713
2022-08-23T03:20:28.355Z,50.910667
2022-08-23T03:21:28.348Z,50.910679
2022-08-23T03:22:28.342Z,50.910706
2022-08-23T03:23:28.322Z,50.910748
2022-08-23T03:24:28.339Z,50.910744
2022-08-23T03:25:28.313Z,50.910702
2022-08-23T03:26:28.304Z,50.910664
2022-08-23T03:27:28.308Z,50.910721
2022-08-23T03:28:28.299Z,50.910675
2022-08-23T03:29:28.287Z,50.910667
2022-08-23T03:30:28.247Z,50.910656
2022-08-23T03:31:29.254Z,50.910694
2022-08-23T03:32:28.217Z,50.910713
2022-08-23T03:33:28.198Z,50.910721
2022-08-23T03:34:28.208Z,50.910728
2022-08-23T03:35:28.185Z,50.910709
2022-08-23T03:36:28.482Z,50.910728
2022-08-23T03:37:28.164Z,50.910675
2022-08-23T03:38:28.159Z,50.910671
2022-08-23T03:39:28.160Z,50.910789
2022-08-23T03:40:28.143Z,50.910618
2022-08-23T03:41:28.125Z,50.910683
2022-08-23T03:42:30.712Z,50.910660
2022-08-23T03:43:28.106Z,50.910667
2022-08-23T03:44:28.119Z,50.910702
2022-08-23T03:45:28.092Z,50.910652
2022-08-23T03:46:32.081Z,50.910656
2022-08-23T03:47:29.081Z,50.910637
2022-08-23T03:48:28.066Z,50.910664
2022-08-23T03:49:28.072Z,50.910667
2022-08-23T03:50:28.053Z,50.910652
2022-08-23T03:51:28.041Z,50.910595
2022-08-23T03:52:28.031Z,50.910557
2022-08-23T03:53:28.018Z,50.910564
2022-08-23T03:54:28.020Z,50.910564
2022-08-23T03:55:27.989Z,50.910580
2022-08-23T03:56:27.994Z,50.910576
2022-08-23T03:57:27.973Z,50.910557
2022-08-23T03:58:27.972Z,50.910587
2022-08-23T03:59:27.971Z,50.910603
2022-08-23T04:00:27.951Z,50.910633
2022-08-23T04:01:28.700Z,50.910625
2022-08-23T04:02:27.937Z,50.910633
2022-08-23T04:03:27.923Z,50.910625
2022-08-23T04:04:27.930Z,50.910667
2022-08-23T04:05:27.906Z,50.910637
2022-08-23T04:06:27.896Z,50.910675
2022-08-23T04:07:27.882Z,50.910645
2022-08-23T04:08:33.827Z,50.910645
2022-08-23T04:09:28.885Z,50.910591
2022-08-23T04:10:27.857Z,50.910633
2022-08-23T04:11:27.847Z,50.910606
2022-08-23T04:12:27.835Z,50.910618
2022-08-23T04:13:27.832Z,50.910603
2022-08-23T04:14:27.829Z,50.910641
2022-08-23T04:15:27.807Z,50.910664
2022-08-23T04:16:27.793Z,50.910667
2022-08-23T04:17:27.780Z,50.910645
2022-08-23T04:18:27.781Z,50.910690
2022-08-23T04:19:27.783Z,50.910614
2022-08-23T04:20:27.755Z,50.910622
2022-08-23T04:21:27.741Z,50.910553
2022-08-23T04:22:27.739Z,50.910595
2022-08-23T04:23:27.731Z,50.910656
2022-08-23T04:24:27.731Z,50.910645
2022-08-23T04:25:34.864Z,50.910629
2022-08-23T04:26:30.369Z,50.910645
2022-08-23T04:27:27.686Z,50.910641
2022-08-23T04:28:27.676Z,50.910622
2022-08-23T04:29:34.625Z,50.910595
2022-08-23T04:30:27.658Z,50.910629
2022-08-23T04:31:27.645Z,50.910625
2022-08-23T04:32:28.740Z,50.910561
2022-08-23T04:33:27.628Z,50.910706
2022-08-23T04:34:28.632Z,50.910606
2022-08-23T04:35:27.609Z,50.910637
2022-08-23T04:36:27.603Z,50.910728
2022-08-23T04:37:28.589Z,50.910789
2022-08-23T04:38:27.588Z,50.910625
2022-08-23T04:39:27.602Z,50.910572
2022-08-23T04:40:27.665Z,50.910519
2022-08-23T04:41:27.547Z,50.910591
2022-08-23T04:42:27.543Z,50.910679
2022-08-23T04:43:27.534Z,50.910709
2022-08-23T04:44:27.518Z,50.910706
2022-08-23T04:45:27.767Z,50.910675
2022-08-23T04:46:27.498Z,50.910732
2022-08-23T04:47:27.486Z,50.910679
2022-08-23T04:48:27.480Z,50.910706
2022-08-23T04:49:27.492Z,50.910702
2022-08-23T04:50:27.476Z,50.910683
2022-08-23T04:51:27.445Z,50.910706
2022-08-23T04:52:27.436Z,50.910694
2022-08-23T04:53:27.428Z,50.910629
2022-08-23T04:54:27.418Z,50.910664
2022-08-23T04:55:27.432Z,50.910713
2022-08-23T04:56:27.392Z,50.910690
2022-08-23T04:57:27.387Z,50.910732
2022-08-23T04:58:27.387Z,50.910709
2022-08-23T04:59:27.366Z,50.910709
2022-08-23T05:00:27.968Z,50.910709
2022-08-23T05:01:27.451Z,50.910751
2022-08-23T05:02:27.338Z,50.910763
2022-08-23T05:03:27.325Z,50.910805
2022-08-23T05:04:27.333Z,50.910770
2022-08-23T05:05:27.318Z,50.910767
2022-08-23T05:06:27.297Z,50.910698
2022-08-23T05:07:30.982Z,50.910694
2022-08-23T05:08:28.287Z,50.910645
2022-08-23T05:09:27.265Z,50.910603
2022-08-23T05:10:27.589Z,50.910652
2022-08-23T05:11:27.246Z,50.910656
2022-08-23T05:12:27.239Z,50.910709
2022-08-23T05:13:27.231Z,50.910831
2022-08-23T05:14:27.222Z,50.910725
2022-08-23T05:15:27.410Z,50.910698
2022-08-23T05:16:27.203Z,50.910671
2022-08-23T05:17:27.186Z,50.910706
2022-08-23T05:18:27.189Z,50.910744
2022-08-23T05:19:27.191Z,50.910789
2022-08-23T05:20:27.187Z,50.910748
2022-08-23T05:21:27.149Z,50.910896
2022-08-23T05:22:27.147Z,50.910915
2022-08-23T05:23:32.068Z,50.910763
2022-08-23T05:24:27.119Z,50.910698
2022-08-23T05:25:27.136Z,50.910709
2022-08-23T05:26:27.103Z,50.910770
2022-08-23T05:27:27.090Z,50.910725
2022-08-23T05:28:27.079Z,50.910751
2022-08-23T05:29:27.072Z,50.910751
2022-08-23T05:30:27.106Z,50.910809
2022-08-23T05:31:27.048Z,50.910774
2022-08-23T05:32:30.343Z,50.910725
2022-08-23T05:33:27.027Z,50.910698
2022-08-23T05:34:27.021Z,50.910641
2022-08-23T05:35:27.024Z,50.910702
2022-08-23T05:36:27.007Z,50.910751
2022-08-23T05:37:26.993Z,50.910702
2022-08-23T05:38:26.986Z,50.910690
2022-08-23T05:39:36.155Z,50.910755
2022-08-23T05:40:26.986Z,50.910767
2022-08-23T05:41:37.820Z,50.910801
2022-08-23T05:42:27.945Z,50.910767
2022-08-23T05:43:26.968Z,50.910702
2022-08-23T05:44:26.935Z,50.910736
2022-08-23T05:45:26.946Z,50.910755
2022-08-23T05:46:28.571Z,50.910767
2022-08-23T05:47:26.904Z,50.910767
2022-08-23T05:48:26.890Z,50.910744
2022-08-23T05:49:26.879Z,50.910736
2022-08-23T05:50:26.882Z,50.910793
2022-08-23T05:51:26.877Z,50.910763
2022-08-23T05:52:26.857Z,50.910843
2022-08-23T05:53:26.842Z,50.910805
2022-08-23T05:54:26.839Z,50.910820
2022-08-23T05:55:27.569Z,50.910782
2022-08-23T05:56:27.832Z,50.910831
2022-08-23T05:57:26.809Z,50.910664
2022-08-23T05:58:26.795Z,50.910656
2022-08-23T05:59:26.790Z,50.910736
2022-08-23T06:00:37.845Z,50.910702
2022-08-23T06:01:27.808Z,50.910763
2022-08-23T06:02:26.802Z,50.910816
2022-08-23T06:03:26.743Z,50.910725
2022-08-23T06:04:26.740Z,50.910652
2022-08-23T06:05:26.730Z,50.910656
2022-08-23T06:06:37.499Z,50.910667
2022-08-23T06:07:27.707Z,50.910728
2022-08-23T06:08:26.698Z,50.910660
2022-08-23T06:09:26.686Z,50.910648
2022-08-23T06:10:26.678Z,50.910645
2022-08-23T06:11:26.688Z,50.910656
2022-08-23T06:12:26.658Z,50.910656
2022-08-23T06:13:26.655Z,50.910706
2022-08-23T06:14:26.722Z,50.910675
2022-08-23T06:15:26.663Z,50.910686
2022-08-23T06:16:26.649Z,50.910671
2022-08-23T06:17:26.621Z,50.910614
2022-08-23T06:18:26.605Z,50.910580
2022-08-23T06:19:26.597Z,50.910614
2022-08-23T06:20:26.653Z,50.910629
2022-08-23T06:21:26.590Z,50.910667
2022-08-23T06:22:26.566Z,50.910648
2022-08-23T06:23:26.568Z,50.910622
2022-08-23T06:24:26.546Z,50.910633
2022-08-23T06:25:26.536Z,50.910667
2022-08-23T06:26:26.548Z,50.910664
2022-08-23T06:27:26.520Z,50.910656
2022-08-23T06:28:26.544Z,50.910645
2022-08-23T06:29:26.562Z,50.910683
2022-08-23T06:30:26.513Z,50.910706
2022-08-23T06:31:26.606Z,50.910709
2022-08-23T06:32:26.494Z,50.910690
2022-08-23T06:33:26.473Z,50.910606
2022-08-23T06:34:26.438Z,50.910660
2022-08-23T06:35:38.167Z,50.910744
2022-08-23T06:36:27.460Z,50.910759
2022-08-23T06:37:26.417Z,50.910603
2022-08-23T06:38:26.400Z,50.910614
2022-08-23T06:39:26.399Z,50.910645
2022-08-23T06:40:26.478Z,50.910583
2022-08-23T06:41:26.399Z,50.910671
2022-08-23T06:42:41.253Z,50.910675
2022-08-23T06:43:27.362Z,50.910824
2022-08-23T06:44:26.347Z,50.910744
2022-08-23T06:45:33.842Z,50.910759
2022-08-23T06:46:28.228Z,50.910583
2022-08-23T06:47:26.320Z,50.910652
2022-08-23T06:48:26.314Z,50.910717
2022-08-23T06:49:26.297Z,50.910690
2022-08-23T06:50:26.354Z,50.910568
2022-08-23T06:51:26.552Z,50.910637
2022-08-23T06:52:26.268Z,50.910587
2022-08-23T06:53:26.261Z,50.910553
2022-08-23T06:54:26.426Z,50.910664
2022-08-23T06:55:26.247Z,50.910469
2022-08-23T06:56:26.253Z,50.910568
2022-08-23T06:57:26.225Z,50.910671
2022-08-23T06:58:26.212Z,50.910706
2022-08-23T06:59:26.200Z,50.910591
2022-08-23T07:00:26.283Z,50.910614
2022-08-23T07:01:44.679Z,50.910614
2022-08-23T07:02:27.262Z,50.910782
2022-08-23T07:03:26.165Z,50.910683
2022-08-23T07:04:26.150Z,50.910690
2022-08-23T07:05:26.151Z,50.910675
2022-08-23T07:06:26.159Z,50.910717
2022-08-23T07:07:39.697Z,50.910725
2022-08-23T07:08:27.110Z,50.910774
2022-08-23T07:09:26.103Z,50.910770
2022-08-23T07:10:26.103Z,50.910717
2022-08-23T07:11:26.104Z,50.910595
2022-08-23T07:12:26.071Z,50.910645
2022-08-23T07:13:26.061Z,50.910679
2022-08-23T07:14:26.049Z,50.910709
2022-08-23T07:15:26.044Z,50.910896
2022-08-23T07:16:26.104Z,50.910870
2022-08-23T07:17:26.037Z,50.910873
2022-08-23T07:18:26.008Z,50.910721
2022-08-23T07:19:28.949Z,50.910793
2022-08-23T07:20:25.988Z,50.910763
2022-08-23T07:21:25.988Z,50.910801
2022-08-23T07:22:25.986Z,50.910706
2022-08-23T07:23:25.973Z,50.910690
2022-08-23T07:24:30.642Z,50.910702
2022-08-23T07:25:26.953Z,50.910728
2022-08-23T07:26:25.940Z,50.910763
2022-08-23T07:27:25.948Z,50.910664
2022-08-23T07:28:25.919Z,50.910641
2022-08-23T07:29:25.910Z,50.910744
2022-08-23T07:30:25.899Z,50.910702
2022-08-23T07:31:25.971Z,50.910706
2022-08-23T07:32:25.878Z,50.910671
2022-08-23T07:33:25.872Z,50.910675
2022-08-23T07:34:25.856Z,50.910629
2022-08-23T07:35:25.846Z,50.910622
2022-08-23T07:36:25.851Z,50.910622
2022-08-23T07:37:25.829Z,50.910614
2022-08-23T07:38:30.581Z,50.910599
2022-08-23T07:39:25.807Z,50.910519
2022-08-23T07:40:27.763Z,50.910641
2022-08-23T07:41:25.807Z,50.910755
2022-08-23T07:42:25.783Z,50.910679
2022-08-23T07:43:25.774Z,50.910683
2022-08-23T07:44:27.366Z,50.910706
2022-08-23T07:45:25.754Z,50.910652
2022-08-23T07:46:25.765Z,50.910904
2022-08-23T07:47:25.740Z,50.910835
2022-08-23T07:48:50.266Z,50.910683
2022-08-23T07:49:29.312Z,50.910828
2022-08-23T07:50:25.694Z,50.910793
2022-08-23T07:51:25.692Z,50.910805
2022-08-23T07:52:25.697Z,50.910778
2022-08-23T07:53:37.281Z,50.910789
2022-08-23T07:54:26.656Z,50.910751
2022-08-23T07:55:25.653Z,50.910744
2022-08-23T07:56:25.649Z,50.910759
2022-08-23T07:57:25.647Z,50.910763
2022-08-23T07:58:25.622Z,50.910717
2022-08-23T07:59:25.617Z,50.910763
2022-08-23T08:00:25.605Z,50.910778
2022-08-23T08:01:25.670Z,50.910736
2022-08-23T08:02:25.648Z,50.910736
2022-08-23T08:03:25.586Z,50.910717
2022-08-23T08:04:25.569Z,50.910709
2022-08-23T08:05:25.564Z,50.910717
2022-08-23T08:06:25.549Z,50.910805
2022-08-23T08:07:25.559Z,50.910763
2022-08-23T08:08:25.542Z,50.910728
2022-08-23T08:09:25.518Z,50.910706
2022-08-23T08:10:25.513Z,50.910713
2022-08-23T08:11:25.503Z,50.910759
2022-08-23T08:12:25.504Z,50.910694
2022-08-23T08:13:25.496Z,50.910778
2022-08-23T08:14:25.474Z,50.910744
2022-08-23T08:15:25.464Z,50.910778
2022-08-23T08:16:25.507Z,50.910854
2022-08-23T08:17:27.534Z,50.910789
2022-08-23T08:18:25.437Z,50.910744
2022-08-23T08:19:25.442Z,50.910599
2022-08-23T08:20:25.448Z,50.910660
2022-08-23T08:21:25.410Z,50.910675
2022-08-23T08:22:25.413Z,50.910732
2022-08-23T08:23:25.431Z,50.910637
2022-08-23T08:24:25.368Z,50.910706
2022-08-23T08:25:25.376Z,50.910782
2022-08-23T08:26:25.358Z,50.910809
2022-08-23T08:27:25.368Z,50.910767
2022-08-23T08:28:25.335Z,50.910789
2022-08-23T08:29:25.337Z,50.910805
2022-08-23T08:30:26.228Z,50.910778
2022-08-23T08:31:25.336Z,50.910789
2022-08-23T08:32:25.350Z,50.910877
2022-08-23T08:33:25.294Z,50.910774
2022-08-23T08:34:26.281Z,50.910786
2022-08-23T08:35:25.301Z,50.910816
2022-08-23T08:36:25.261Z,50.910824
2022-08-23T08:37:25.261Z,50.910793
2022-08-23T08:38:25.377Z,50.910786
2022-08-23T08:39:25.239Z,50.910778
2022-08-23T08:40:25.226Z,50.910778
2022-08-23T08:41:25.217Z,50.910851
2022-08-23T08:42:25.223Z,50.910912
2022-08-23T08:43:25.219Z,50.910755
2022-08-23T08:44:25.466Z,50.910778
2022-08-23T08:45:26.392Z,50.910709
2022-08-23T08:46:26.005Z,50.910778
2022-08-23T08:47:25.181Z,50.910820
2022-08-23T08:48:25.164Z,50.910786
2022-08-23T08:49:25.150Z,50.910622
2022-08-23T08:50:25.135Z,50.910561
2022-08-23T08:51:25.149Z,50.910683
2022-08-23T08:52:25.152Z,50.910721
2022-08-23T08:53:25.116Z,50.910751
2022-08-23T08:54:25.100Z,50.910770
2022-08-23T08:55:25.099Z,50.910736
2022-08-23T08:56:25.076Z,50.910728
2022-08-23T08:57:27.504Z,50.910721
2022-08-23T08:58:25.063Z,50.910679
2022-08-23T08:59:25.059Z,50.910721
2022-08-23T09:00:25.047Z,50.910885
2022-08-23T09:01:25.063Z,50.910770
2022-08-23T09:02:32.755Z,50.910789
2022-08-23T09:03:26.066Z,50.910809
2022-08-23T09:04:25.022Z,50.910709
2022-08-23T09:05:25.005Z,50.910686
2022-08-23T09:06:24.989Z,50.910629
2022-08-23T09:07:30.561Z,50.910694
2022-08-23T09:08:25.974Z,50.910713
2022-08-23T09:09:24.966Z,50.910732
2022-08-23T09:10:25.035Z,50.910755
2022-08-23T09:11:24.949Z,50.910702
2022-08-23T09:12:24.958Z,50.910717
2022-08-23T09:13:24.931Z,50.910709
2022-08-23T09:14:24.919Z,50.910744
2022-08-23T09:15:24.912Z,50.910625
2022-08-23T09:16:24.901Z,50.910591
2022-08-23T09:17:24.903Z,50.910618
2022-08-23T09:18:24.902Z,50.910557
2022-08-23T09:19:25.156Z,50.910568
2022-08-23T09:20:24.866Z,50.910587
2022-08-23T09:21:24.861Z,50.910587
2022-08-23T09:22:24.854Z,50.910633
2022-08-23T09:23:24.867Z,50.910595
2022-08-23T09:24:24.835Z,50.910614
2022-08-23T09:25:24.833Z,50.910645
2022-08-23T09:26:24.819Z,50.910610
2022-08-23T09:27:24.895Z,50.910610
2022-08-23T09:28:24.816Z,50.910522
2022-08-23T09:29:24.798Z,50.910534
2022-08-23T09:30:24.792Z,50.910633
2022-08-23T09:31:24.842Z,50.910637
2022-08-23T09:32:24.768Z,50.910679
2022-08-23T09:33:26.219Z,50.910728
2022-08-23T09:34:24.761Z,50.910591
2022-08-23T09:35:24.749Z,50.910587
2022-08-23T09:36:24.740Z,50.910652
2022-08-23T09:37:24.731Z,50.910671
2022-08-23T09:38:24.734Z,50.910694
2022-08-23T09:39:27.296Z,50.910706
2022-08-23T09:40:25.705Z,50.910629
2022-08-23T09:41:24.693Z,50.910625
2022-08-23T09:42:24.690Z,50.910732
2022-08-23T09:43:24.701Z,50.910686
2022-08-23T09:44:24.668Z,50.910629
2022-08-23T09:45:24.668Z,50.910633
2022-08-23T09:46:24.690Z,50.910603
2022-08-23T09:47:24.652Z,50.910603
2022-08-23T09:48:28.164Z,50.910641
2022-08-23T09:49:25.635Z,50.910561
2022-08-23T09:50:24.619Z,50.910637
2022-08-23T09:51:25.171Z,50.910641
2022-08-23T09:52:24.607Z,50.910595
2022-08-23T09:53:24.599Z,50.910656
2022-08-23T09:54:24.602Z,50.910633
2022-08-23T09:55:24.597Z,50.910740
2022-08-23T09:56:24.575Z,50.910702
2022-08-23T09:57:24.570Z,50.910706
2022-08-23T09:58:24.560Z,50.910748
2022-08-23T09:59:26.892Z,50.910755
2022-08-23T10:00:24.540Z,50.910824
2022-08-23T10:01:24.624Z,50.910675
2022-08-23T10:02:24.531Z,50.910656
2022-08-23T10:03:24.524Z,50.910595
2022-08-23T10:04:24.616Z,50.910480
2022-08-23T10:05:24.509Z,50.910458
2022-08-23T10:06:24.500Z,50.910515
2022-08-23T10:07:25.492Z,50.910568
2022-08-23T10:08:24.485Z,50.910576
2022-08-23T10:09:24.490Z,50.910679
2022-08-23T10:10:24.470Z,50.910606
2022-08-23T10:11:24.465Z,50.910660
2022-08-23T10:12:24.458Z,50.910664
2022-08-23T10:13:24.441Z,50.910648
2022-08-23T10:14:28.677Z,50.910690
2022-08-23T10:15:25.427Z,50.910648
2022-08-23T10:16:24.488Z,50.910683
2022-08-23T10:17:24.414Z,50.910629
2022-08-23T10:18:24.415Z,50.910622
2022-08-23T10:19:24.427Z,50.910686
2022-08-23T10:20:24.396Z,50.910671
2022-08-23T10:21:24.496Z,50.910664
2022-08-23T10:22:24.379Z,50.910748
2022-08-23T10:23:24.375Z,50.910728
2022-08-23T10:24:24.382Z,50.910648
2022-08-23T10:25:24.357Z,50.910664
2022-08-23T10:26:24.352Z,50.910656
2022-08-23T10:27:24.344Z,50.910564
2022-08-23T10:28:24.341Z,50.910728
2022-08-23T10:29:24.344Z,50.910618
2022-08-23T10:30:24.326Z,50.910557
2022-08-23T10:31:24.343Z,50.910599
2022-08-23T10:32:24.322Z,50.910633
2022-08-23T10:33:24.301Z,50.910595
2022-08-23T10:34:24.322Z,50.910576
2022-08-23T10:35:24.309Z,50.910648
2022-08-23T10:36:24.292Z,50.910633
2022-08-23T10:37:24.282Z,50.910667
2022-08-23T10:38:24.276Z,50.910686
2022-08-23T10:39:24.282Z,50.910660
2022-08-23T10:40:24.300Z,50.910706
2022-08-23T10:41:24.246Z,50.910671
2022-08-23T10:42:24.249Z,50.910648
2022-08-23T10:43:24.238Z,50.910366
2022-08-23T10:44:24.244Z,50.910595
2022-08-23T10:45:24.221Z,50.910709
2022-08-23T10:46:24.279Z,50.910751
2022-08-23T10:47:24.207Z,50.910763
2022-08-23T10:48:24.222Z,50.910736
2022-08-23T10:49:24.230Z,50.910782
2022-08-23T10:50:24.184Z,50.910973
2022-08-23T10:51:31.518Z,50.910805
2022-08-23T10:52:25.175Z,50.910816
2022-08-23T10:53:24.160Z,50.910797
2022-08-23T10:54:24.180Z,50.910667
2022-08-23T10:55:24.144Z,50.910713
2022-08-23T10:56:24.133Z,50.910782
2022-08-23T10:57:24.127Z,50.910892
2022-08-23T10:58:24.117Z,50.910751
2022-08-23T10:59:24.271Z,50.910831
2022-08-23T11:00:24.112Z,50.910786
2022-08-23T11:01:24.118Z,50.910534
2022-08-23T11:02:24.158Z,50.910591
2022-08-23T11:03:28.624Z,50.910625
2022-08-23T11:04:24.087Z,50.910713
2022-08-23T11:05:24.063Z,50.910728
2022-08-23T11:06:24.063Z,50.910660
2022-08-23T11:07:24.045Z,50.910774
2022-08-23T11:08:24.042Z,50.910736
2022-08-23T11:09:25.810Z,50.910683
2022-08-23T11:10:24.050Z,50.910778
2022-08-23T11:11:24.010Z,50.910789
2022-08-23T11:12:24.009Z,50.910755
2022-08-23T11:13:24.001Z,50.910778
2022-08-23T11:14:24.016Z,50.910820
2022-08-23T11:15:23.978Z,50.910866
2022-08-23T11:16:23.976Z,50.910778
2022-08-23T11:17:23.981Z,50.910892
2022-08-23T11:18:23.954Z,50.910583
2022-08-23T11:19:23.940Z,50.910583
2022-08-23T11:20:23.958Z,50.910694
2022-08-23T11:21:23.929Z,50.910725
2022-08-23T11:22:23.927Z,50.910778
2022-08-23T11:23:23.916Z,50.910702
2022-08-23T11:24:23.906Z,50.910744